createdAt,value
2017-09-26T00:00:15.509Z,82.60
2017-09-26T00:02:43.068Z,82.60
2017-09-26T00:05:10.655Z,82.10
2017-09-26T00:07:38.245Z,82.40
2017-09-26T00:10:06.565Z,82.40
2017-09-26T00:12:34.114Z,82.30
2017-09-26T00:15:01.809Z,82.50
2017-09-26T00:17:29.584Z,82.50
2017-09-26T00:19:57.923Z,82.20
2017-09-26T00:22:25.541Z,82.20
2017-09-26T00:24:53.110Z,82.20
2017-09-26T00:27:21.443Z,82.00
2017-09-26T00:29:49.046Z,82.00
2017-09-26T00:32:17.407Z,82.00
2017-09-26T00:34:44.983Z,81.90
2017-09-26T00:37:12.560Z,81.90
2017-09-26T00:39:40.886Z,82.40
2017-09-26T00:42:08.461Z,82.40
2017-09-26T00:44:36.053Z,81.90
2017-09-26T00:47:09.801Z,82.60
2017-09-26T00:49:37.681Z,82.60
2017-09-26T00:52:05.239Z,82.70
2017-09-26T00:54:32.870Z,82.70
2017-09-26T00:57:01.173Z,83.50
2017-09-26T00:59:28.777Z,82.90
2017-09-26T01:01:56.363Z,83.10
2017-09-26T01:04:24.883Z,83.10
2017-09-26T01:06:55.081Z,83.00
2017-09-26T01:09:23.552Z,83.00
2017-09-26T01:11:51.139Z,83.00
2017-09-26T01:14:19.469Z,83.10
2017-09-26T01:16:47.048Z,83.10
2017-09-26T01:19:15.486Z,83.10
2017-09-26T01:21:43.131Z,83.10
2017-09-26T01:24:10.673Z,83.10
2017-09-26T01:26:38.274Z,82.70
2017-09-26T01:29:05.819Z,82.80
2017-09-26T01:31:34.123Z,83.30
2017-09-26T01:34:02.460Z,83.70
2017-09-26T01:36:30.044Z,83.70
2017-09-26T01:38:57.614Z,83.70
2017-09-26T01:41:25.193Z,84.00
2017-09-26T01:43:53.546Z,83.50
2017-09-26T01:46:21.155Z,83.50
2017-09-26T01:48:48.712Z,83.70
2017-09-26T01:51:17.230Z,83.40
2017-09-26T01:53:44.802Z,83.40
2017-09-26T01:56:13.333Z,83.20
2017-09-26T01:58:46.561Z,83.00
2017-09-26T02:01:14.141Z,82.80
2017-09-26T02:03:41.726Z,83.00
2017-09-26T02:06:09.409Z,82.90
2017-09-26T02:08:36.971Z,82.60
2017-09-26T02:11:04.584Z,82.60
2017-09-26T02:13:32.143Z,82.50
2017-09-26T02:16:00.497Z,81.90
2017-09-26T02:18:28.076Z,81.90
2017-09-26T02:20:56.420Z,82.50
2017-09-26T02:23:23.974Z,82.50
2017-09-26T02:25:51.539Z,82.70
2017-09-26T02:28:19.112Z,82.70
2017-09-26T02:30:46.691Z,82.70
2017-09-26T02:33:14.300Z,82.90
2017-09-26T02:35:41.854Z,83.20
2017-09-26T02:38:09.446Z,83.50
2017-09-26T02:40:37.017Z,83.90
2017-09-26T02:43:04.604Z,83.70
2017-09-26T02:45:32.980Z,83.80
2017-09-26T02:48:01.313Z,83.60
2017-09-26T02:50:28.912Z,83.40
2017-09-26T02:52:57.251Z,83.30
2017-09-26T02:55:24.821Z,83.20
2017-09-26T02:57:52.397Z,83.10
2017-09-26T03:00:19.979Z,83.00
2017-09-26T03:02:47.578Z,82.30
2017-09-26T03:05:15.147Z,82.70
2017-09-26T03:07:42.727Z,82.90
2017-09-26T03:10:10.315Z,82.90
2017-09-26T03:12:38.648Z,83.50
2017-09-26T03:15:06.259Z,83.40
2017-09-26T03:17:34.585Z,84.40
2017-09-26T03:20:02.139Z,84.40
2017-09-26T03:22:29.705Z,84.30
2017-09-26T03:24:57.252Z,84.10
2017-09-26T03:27:24.825Z,83.80
2017-09-26T03:29:52.381Z,83.60
2017-09-26T03:32:19.947Z,83.20
2017-09-26T03:34:47.562Z,83.10
2017-09-26T03:37:15.939Z,83.30
2017-09-26T03:39:43.498Z,83.30
2017-09-26T03:42:11.858Z,83.10
2017-09-26T03:44:39.449Z,83.10
2017-09-26T03:47:07.003Z,83.00
2017-09-26T03:49:34.611Z,82.90
2017-09-26T03:52:02.174Z,82.70
2017-09-26T03:54:29.769Z,83.10
2017-09-26T03:56:58.114Z,84.00
2017-09-26T03:59:25.691Z,84.00
2017-09-26T04:01:53.233Z,84.40
2017-09-26T04:04:20.792Z,84.60
2017-09-26T04:06:48.365Z,84.20
2017-09-26T04:09:15.967Z,84.00
2017-09-26T04:11:43.533Z,83.80
2017-09-26T04:14:11.088Z,83.60
2017-09-26T04:16:38.685Z,83.20
2017-09-26T04:19:06.252Z,83.30
2017-09-26T04:21:33.832Z,83.70
2017-09-26T04:24:01.394Z,84.00
2017-09-26T04:26:28.961Z,84.00
2017-09-26T04:28:57.306Z,84.00
2017-09-26T04:31:24.910Z,84.00
2017-09-26T04:33:53.278Z,83.90
2017-09-26T04:36:21.633Z,84.00
2017-09-26T04:38:49.184Z,84.00
2017-09-26T04:41:16.738Z,83.90
2017-09-26T04:43:44.301Z,83.70
2017-09-26T04:46:11.853Z,83.80
2017-09-26T04:48:39.449Z,83.80
2017-09-26T04:51:06.989Z,83.70
2017-09-26T04:53:34.544Z,83.70
2017-09-26T04:56:02.083Z,83.70
2017-09-26T04:58:29.683Z,83.60
2017-09-26T05:00:57.275Z,83.70
2017-09-26T05:03:25.645Z,84.30
2017-09-26T05:05:53.978Z,84.30
2017-09-26T05:08:21.578Z,84.30
2017-09-26T05:10:49.961Z,85.20
2017-09-26T05:13:17.545Z,85.20
2017-09-26T05:15:45.105Z,84.90
2017-09-26T05:18:12.685Z,84.50
2017-09-26T05:20:40.236Z,84.60
2017-09-26T05:23:07.792Z,84.90
2017-09-26T05:25:35.366Z,85.20
2017-09-26T05:28:02.949Z,85.50
2017-09-26T05:30:30.533Z,85.20
2017-09-26T05:32:58.117Z,85.20
2017-09-26T05:35:26.552Z,86.00
2017-09-26T05:37:54.102Z,85.30
2017-09-26T05:40:21.669Z,85.20
2017-09-26T05:42:49.268Z,86.00
2017-09-26T05:45:16.923Z,86.20
2017-09-26T05:47:45.317Z,84.90
2017-09-26T05:50:12.884Z,84.70
2017-09-26T05:52:40.472Z,84.60
2017-09-26T05:55:08.074Z,85.00
2017-09-26T05:57:35.665Z,84.90
2017-09-26T06:00:03.261Z,84.40
2017-09-26T06:02:30.858Z,84.30
2017-09-26T06:04:58.440Z,84.10
2017-09-26T06:07:26.019Z,84.10
2017-09-26T06:09:53.584Z,83.80
2017-09-26T06:12:21.173Z,83.70
2017-09-26T06:14:48.739Z,84.30
2017-09-26T06:17:16.340Z,84.40
2017-09-26T06:19:43.913Z,84.50
2017-09-26T06:22:11.539Z,84.60
2017-09-26T06:24:39.104Z,85.30
2017-09-26T06:27:07.435Z,84.80
2017-09-26T06:29:34.995Z,84.80
2017-09-26T06:32:02.557Z,84.30
2017-09-26T06:34:30.138Z,84.40
2017-09-26T06:36:57.709Z,85.00
2017-09-26T06:39:25.273Z,85.60
2017-09-26T06:41:52.853Z,85.40
2017-09-26T06:44:21.199Z,85.00
2017-09-26T06:46:48.759Z,84.90
2017-09-26T06:49:16.343Z,85.50
2017-09-26T06:51:44.678Z,84.60
2017-09-26T06:54:12.221Z,84.60
2017-09-26T06:56:39.815Z,85.10
2017-09-26T06:59:07.397Z,85.60
2017-09-26T07:01:35.732Z,85.90
2017-09-26T07:04:03.329Z,85.90
2017-09-26T07:06:30.929Z,86.10
2017-09-26T07:08:58.495Z,85.90
2017-09-26T07:11:26.070Z,85.20
2017-09-26T07:13:53.654Z,85.40
2017-09-26T07:16:21.266Z,85.50
2017-09-26T07:18:48.856Z,84.90
2017-09-26T07:21:16.441Z,84.10
2017-09-26T07:23:44.105Z,83.80
2017-09-26T07:26:11.661Z,84.00
2017-09-26T07:28:39.279Z,84.10
2017-09-26T07:31:07.068Z,84.20
2017-09-26T07:33:34.786Z,83.90
2017-09-26T07:36:03.137Z,84.40
2017-09-26T07:38:30.711Z,84.40
2017-09-26T07:40:59.041Z,84.30
2017-09-26T07:43:26.636Z,84.30
2017-09-26T07:45:54.215Z,84.00
2017-09-26T07:48:22.559Z,83.80
2017-09-26T07:50:50.125Z,83.80
2017-09-26T07:53:17.715Z,83.70
2017-09-26T07:55:46.049Z,85.30
2017-09-26T07:58:13.653Z,85.10
2017-09-26T08:00:42.287Z,83.00
2017-09-26T08:03:09.848Z,82.90
2017-09-26T08:05:37.770Z,82.50
2017-09-26T08:08:06.427Z,81.90
2017-09-26T08:10:33.997Z,81.90
2017-09-26T08:13:01.583Z,81.50
2017-09-26T08:15:29.163Z,81.60
2017-09-26T08:17:56.758Z,83.00
2017-09-26T08:20:24.327Z,82.60
2017-09-26T08:22:51.916Z,82.70
2017-09-26T08:25:19.488Z,81.20
2017-09-26T08:27:47.120Z,81.10
2017-09-26T08:30:14.698Z,80.30
2017-09-26T08:32:42.307Z,79.20
2017-09-26T08:35:09.911Z,79.60
2017-09-26T08:37:37.531Z,79.50
2017-09-26T08:40:05.107Z,79.00
2017-09-26T08:42:32.673Z,79.70
2017-09-26T08:45:00.226Z,79.60
2017-09-26T08:47:27.781Z,78.30
2017-09-26T08:49:55.326Z,77.10
2017-09-26T08:52:22.889Z,76.50
2017-09-26T08:54:50.457Z,76.50
2017-09-26T08:57:18.050Z,76.90
2017-09-26T08:59:46.388Z,77.10
2017-09-26T09:02:13.923Z,76.90
2017-09-26T09:04:41.496Z,75.40
2017-09-26T09:07:09.082Z,75.30
2017-09-26T09:09:36.652Z,73.60
2017-09-26T09:12:04.217Z,73.00
2017-09-26T09:14:31.790Z,73.00
2017-09-26T09:17:00.141Z,73.40
2017-09-26T09:19:27.729Z,73.50
2017-09-26T09:21:56.125Z,73.20
2017-09-26T09:24:23.717Z,73.10
2017-09-26T09:26:51.321Z,73.10
2017-09-26T09:29:18.883Z,72.70
2017-09-26T09:31:46.475Z,72.60
2017-09-26T09:34:14.037Z,70.50
2017-09-26T09:36:41.610Z,71.50
2017-09-26T09:39:09.950Z,71.50
2017-09-26T09:41:38.291Z,73.00
2017-09-26T09:44:05.874Z,72.90
2017-09-26T09:46:33.434Z,73.40
2017-09-26T09:49:01.030Z,73.70
2017-09-26T09:51:28.606Z,74.10
2017-09-26T09:53:56.170Z,72.60
2017-09-26T09:56:23.765Z,70.40
2017-09-26T09:58:51.456Z,70.30
2017-09-26T10:01:19.799Z,70.20
2017-09-26T10:03:47.470Z,70.10
2017-09-26T10:06:15.038Z,69.30
2017-09-26T10:08:42.601Z,68.80
2017-09-26T10:11:10.160Z,69.00
2017-09-26T10:13:37.718Z,70.60
2017-09-26T10:16:05.290Z,68.40
2017-09-26T10:18:33.656Z,67.80
2017-09-26T10:21:01.236Z,67.80
2017-09-26T10:23:29.569Z,67.80
2017-09-26T10:25:57.154Z,67.80
2017-09-26T10:28:24.739Z,67.80
2017-09-26T10:30:53.101Z,66.20
2017-09-26T10:33:20.649Z,66.10
2017-09-26T10:35:48.231Z,65.70
2017-09-26T10:38:16.574Z,62.60
2017-09-26T10:40:44.211Z,62.60
2017-09-26T10:43:11.751Z,62.60
2017-09-26T10:45:39.326Z,63.30
2017-09-26T10:48:06.922Z,61.70
2017-09-26T10:50:34.473Z,62.90
2017-09-26T10:53:02.041Z,62.80
2017-09-26T10:55:29.595Z,61.90
2017-09-26T10:57:57.164Z,63.40
2017-09-26T11:00:24.736Z,62.10
2017-09-26T11:02:52.320Z,62.50
2017-09-26T11:05:20.663Z,61.90
2017-09-26T11:07:48.237Z,61.90
2017-09-26T11:10:15.800Z,62.80
2017-09-26T11:12:43.399Z,60.40
2017-09-26T11:15:10.966Z,60.30
2017-09-26T11:17:38.539Z,59.50
2017-09-26T11:20:06.927Z,56.90
2017-09-26T11:22:34.492Z,56.90
2017-09-26T11:25:02.037Z,54.70
2017-09-26T11:27:29.605Z,56.20
2017-09-26T11:29:57.984Z,54.20
2017-09-26T11:32:25.539Z,54.20
2017-09-26T11:34:53.105Z,56.80
2017-09-26T11:37:20.685Z,55.50
2017-09-26T11:39:48.241Z,57.70
2017-09-26T11:42:15.805Z,59.40
2017-09-26T11:44:43.354Z,58.90
2017-09-26T11:47:10.941Z,59.30
2017-09-26T11:49:38.507Z,57.80
2017-09-26T11:52:06.065Z,58.90
2017-09-26T11:54:33.651Z,60.00
2017-09-26T11:57:01.959Z,56.20
2017-09-26T11:59:29.691Z,56.20
2017-09-26T12:01:57.362Z,57.20
2017-09-26T12:04:24.945Z,56.90
2017-09-26T12:06:52.518Z,54.30
2017-09-26T12:09:20.131Z,56.00
2017-09-26T12:11:48.436Z,57.40
2017-09-26T12:14:16.019Z,57.40
2017-09-26T12:16:43.562Z,56.70
2017-09-26T12:19:11.144Z,54.70
2017-09-26T12:21:38.686Z,54.20
2017-09-26T12:24:06.266Z,55.00
2017-09-26T12:26:33.836Z,56.30
2017-09-26T12:29:01.414Z,56.60
2017-09-26T12:31:29.011Z,56.20
2017-09-26T12:33:56.609Z,56.40
2017-09-26T12:36:24.203Z,56.20
2017-09-26T12:38:52.542Z,53.20
2017-09-26T12:41:20.095Z,53.20
2017-09-26T12:43:47.681Z,52.30
2017-09-26T12:46:15.259Z,52.30
2017-09-26T12:48:43.630Z,53.00
2017-09-26T12:51:11.199Z,52.90
2017-09-26T12:53:39.527Z,54.20
2017-09-26T12:56:07.080Z,54.10
2017-09-26T12:58:34.653Z,53.60
2017-09-26T13:01:02.201Z,54.40
2017-09-26T13:03:29.761Z,53.60
2017-09-26T13:05:57.341Z,52.30
2017-09-26T13:08:24.939Z,50.80
2017-09-26T13:10:52.517Z,51.10
2017-09-26T13:13:20.846Z,50.50
2017-09-26T13:15:48.400Z,50.40
2017-09-26T13:18:15.962Z,50.50
2017-09-26T13:20:43.525Z,50.00
2017-09-26T13:23:11.140Z,51.00
2017-09-26T13:25:39.475Z,48.70
2017-09-26T13:28:07.053Z,48.60
2017-09-26T13:30:34.609Z,48.70
2017-09-26T13:33:02.219Z,47.00
2017-09-26T13:35:29.807Z,47.20
2017-09-26T13:37:57.394Z,45.60
2017-09-26T13:40:25.087Z,46.00
2017-09-26T13:42:52.614Z,47.70
2017-09-26T13:45:20.191Z,49.20
2017-09-26T13:47:48.498Z,47.90
2017-09-26T13:50:16.076Z,47.90
2017-09-26T13:52:43.634Z,48.60
2017-09-26T13:55:11.194Z,46.90
2017-09-26T13:57:38.806Z,46.50
2017-09-26T14:00:07.177Z,46.40
2017-09-26T14:02:34.750Z,46.40
2017-09-26T14:05:03.076Z,45.30
2017-09-26T14:07:30.669Z,45.30
2017-09-26T14:09:58.241Z,46.60
2017-09-26T14:12:25.806Z,48.00
2017-09-26T14:14:53.385Z,48.30
2017-09-26T14:17:20.989Z,46.70
2017-09-26T14:19:48.650Z,46.80
2017-09-26T14:22:16.214Z,47.50
2017-09-26T14:24:43.819Z,47.00
2017-09-26T14:27:12.160Z,46.80
2017-09-26T14:29:39.775Z,46.80
2017-09-26T14:32:07.377Z,48.30
2017-09-26T14:34:34.950Z,48.00
2017-09-26T14:37:02.560Z,48.70
2017-09-26T14:39:30.133Z,49.20
2017-09-26T14:41:57.779Z,49.30
2017-09-26T14:44:25.340Z,47.80
2017-09-26T14:46:52.930Z,48.10
2017-09-26T14:49:20.524Z,47.80
2017-09-26T14:51:48.880Z,47.30
2017-09-26T14:54:16.493Z,47.80
2017-09-26T14:56:44.892Z,46.50
2017-09-26T14:59:12.479Z,46.50
2017-09-26T15:01:40.047Z,47.30
2017-09-26T15:04:07.633Z,46.00
2017-09-26T15:06:35.991Z,48.00
2017-09-26T15:09:03.589Z,47.60
2017-09-26T15:11:31.222Z,48.60
2017-09-26T15:13:58.844Z,46.70
2017-09-26T15:16:26.431Z,46.90
2017-09-26T15:18:53.994Z,47.00
2017-09-26T15:21:21.563Z,49.70
2017-09-26T15:23:49.199Z,50.50
2017-09-26T15:26:16.838Z,50.30
2017-09-26T15:28:44.413Z,52.40
2017-09-26T15:31:11.993Z,51.50
2017-09-26T15:33:39.619Z,52.90
2017-09-26T15:36:07.209Z,52.90
2017-09-26T15:38:34.819Z,54.10
2017-09-26T15:41:02.420Z,54.20
2017-09-26T15:43:29.974Z,55.10
2017-09-26T15:45:57.554Z,54.30
2017-09-26T15:48:25.124Z,54.20
2017-09-26T15:50:52.683Z,53.90
2017-09-26T15:53:20.275Z,54.30
2017-09-26T15:55:48.619Z,54.60
2017-09-26T15:58:16.203Z,54.50
2017-09-26T16:00:44.591Z,55.60
2017-09-26T16:03:12.940Z,56.10
2017-09-26T16:05:40.515Z,56.10
2017-09-26T16:08:08.090Z,55.60
2017-09-26T16:10:36.428Z,56.60
2017-09-26T16:13:04.036Z,56.60
2017-09-26T16:15:32.378Z,59.30
2017-09-26T16:17:59.974Z,59.20
2017-09-26T16:20:28.306Z,60.70
2017-09-26T16:22:55.896Z,60.70
2017-09-26T16:25:23.506Z,61.00
2017-09-26T16:27:51.085Z,61.60
2017-09-26T16:30:18.674Z,62.10
2017-09-26T16:32:46.266Z,62.60
2017-09-26T16:35:13.870Z,63.00
2017-09-26T16:37:41.433Z,63.30
2017-09-26T16:40:08.991Z,63.50
2017-09-26T16:42:36.542Z,63.50
2017-09-26T16:45:04.132Z,63.50
2017-09-26T16:47:31.715Z,63.80
2017-09-26T16:50:00.043Z,64.30
2017-09-26T16:52:27.606Z,64.30
2017-09-26T16:54:55.187Z,64.00
2017-09-26T16:57:22.774Z,64.40
2017-09-26T16:59:51.097Z,64.70
2017-09-26T17:02:19.448Z,65.00
2017-09-26T17:04:47.004Z,65.00
2017-09-26T17:07:14.554Z,65.50
2017-09-26T17:09:42.901Z,66.30
2017-09-26T17:12:10.466Z,66.40
2017-09-26T17:14:38.065Z,66.50
2017-09-26T17:17:05.614Z,67.00
2017-09-26T17:19:33.942Z,67.40
2017-09-26T17:22:01.510Z,67.40
2017-09-26T17:24:29.075Z,67.10
2017-09-26T17:29:50.850Z,67.30
2017-09-26T17:32:18.504Z,66.90
2017-09-26T17:34:48.807Z,65.80
2017-09-26T17:37:17.165Z,66.60
2017-09-26T17:39:45.501Z,67.40
2017-09-26T17:42:13.061Z,67.40
2017-09-26T17:44:40.623Z,67.40
2017-09-26T17:47:08.227Z,67.40
2017-09-26T17:49:36.570Z,67.90
2017-09-26T17:52:04.169Z,67.90
2017-09-26T17:54:31.732Z,68.10
2017-09-26T17:56:59.302Z,68.20
2017-09-26T17:59:26.879Z,67.90
2017-09-26T18:01:54.478Z,68.40
2017-09-26T18:04:22.867Z,68.40
2017-09-26T18:06:50.428Z,68.30
2017-09-26T18:09:18.007Z,68.70
2017-09-26T18:11:45.581Z,68.80
2017-09-26T18:14:13.175Z,68.90
2017-09-26T18:16:40.749Z,69.40
2017-09-26T18:19:08.333Z,69.70
2017-09-26T18:21:36.681Z,70.10
2017-09-26T18:24:04.244Z,70.10
2017-09-26T18:26:31.836Z,70.40
2017-09-26T18:29:00.161Z,70.90
2017-09-26T18:31:27.759Z,70.80
2017-09-26T18:33:55.306Z,71.20
2017-09-26T18:36:22.866Z,71.50
2017-09-26T18:38:50.441Z,71.80
2017-09-26T18:41:18.005Z,72.00
2017-09-26T18:43:45.588Z,72.70
2017-09-26T18:46:13.915Z,73.30
2017-09-26T18:48:41.519Z,73.30
2017-09-26T18:51:09.898Z,73.50
2017-09-26T18:53:43.152Z,73.30
2017-09-26T18:56:13.091Z,73.60
2017-09-26T18:58:44.697Z,73.60
2017-09-26T19:01:15.967Z,74.90
2017-09-26T19:03:44.344Z,74.90
2017-09-26T19:06:16.146Z,75.00
2017-09-26T19:08:43.740Z,75.00
2017-09-26T19:11:13.915Z,74.70
2017-09-26T19:13:44.866Z,74.70
2017-09-26T19:16:13.355Z,74.80
2017-09-26T19:18:42.775Z,75.10
2017-09-26T19:21:16.122Z,76.00
2017-09-26T19:23:46.945Z,76.00
2017-09-26T19:26:19.171Z,76.10
2017-09-26T19:28:48.394Z,77.10
2017-09-26T19:31:17.324Z,76.30
2017-09-26T19:33:48.029Z,76.60
2017-09-26T19:36:17.107Z,77.10
2017-09-26T19:38:47.831Z,77.30
2017-09-26T19:41:16.910Z,77.40
2017-09-26T19:43:44.635Z,77.40
2017-09-26T19:46:15.021Z,77.40
2017-09-26T19:48:44.666Z,77.90
2017-09-26T19:51:14.581Z,77.90
2017-09-26T19:53:45.639Z,78.20
2017-09-26T19:56:22.861Z,78.40
2017-09-26T19:58:58.944Z,78.20
2017-09-26T20:01:26.519Z,78.40
2017-09-26T20:03:56.074Z,79.00
2017-09-26T20:06:27.593Z,79.20
2017-09-26T20:09:05.284Z,79.40
2017-09-26T20:11:35.594Z,79.20
2017-09-26T20:14:08.305Z,79.30
2017-09-26T20:16:39.924Z,79.90
2017-09-26T20:19:33.483Z,79.80
2017-09-26T20:22:01.874Z,79.80
2017-09-26T20:24:29.456Z,79.70
2017-09-26T20:26:57.023Z,79.80
2017-09-26T20:29:24.618Z,80.00
2017-09-26T20:34:30.754Z,80.10
2017-09-26T20:36:58.333Z,80.00
2017-09-26T20:39:27.765Z,79.80
2017-09-26T20:41:57.752Z,80.10
2017-09-26T20:44:26.734Z,80.80
2017-09-26T20:46:57.672Z,79.90
2017-09-26T20:49:26.937Z,80.00
2017-09-26T20:51:58.559Z,80.80
2017-09-26T20:54:27.628Z,80.80
2017-09-26T20:56:57.329Z,81.00
2017-09-26T20:59:26.682Z,81.10
2017-09-26T21:01:56.541Z,81.40
2017-09-26T21:04:26.708Z,81.60
2017-09-26T21:06:58.069Z,81.60
2017-09-26T21:09:26.462Z,81.30
2017-09-26T21:11:55.997Z,81.50
2017-09-26T21:14:27.651Z,81.50
2017-09-26T21:16:56.460Z,81.60
2017-09-26T21:19:28.698Z,81.60
2017-09-26T21:21:56.267Z,82.20
2017-09-26T21:24:23.837Z,82.00
2017-09-26T21:26:52.166Z,82.00
2017-09-26T21:29:19.731Z,82.00
2017-09-26T21:31:48.084Z,82.50
2017-09-26T21:34:15.656Z,82.50
2017-09-26T21:36:43.233Z,82.60
2017-09-26T21:39:11.569Z,82.60
2017-09-26T21:41:39.147Z,82.60
2017-09-26T21:44:06.737Z,82.50
2017-09-26T21:46:35.067Z,83.60
2017-09-26T21:49:02.661Z,83.60
2017-09-26T21:51:30.231Z,83.60
2017-09-26T21:53:58.566Z,83.30
2017-09-26T21:56:26.142Z,83.30
2017-09-26T21:58:53.723Z,83.80
2017-09-26T22:01:21.275Z,84.00
2017-09-26T22:03:48.852Z,83.80
2017-09-26T22:06:17.197Z,83.70
2017-09-26T22:08:44.797Z,83.70
2017-09-26T22:11:13.132Z,84.00
2017-09-26T22:13:40.697Z,84.00
2017-09-26T22:16:08.288Z,83.80
2017-09-26T22:18:36.634Z,83.40
2017-09-26T22:21:04.185Z,83.40
2017-09-26T22:23:31.766Z,83.30
2017-09-26T22:25:59.318Z,83.60
2017-09-26T22:28:26.901Z,83.30
2017-09-26T22:30:55.322Z,83.80
2017-09-26T22:33:22.899Z,83.60
2017-09-26T22:35:50.471Z,83.70
2017-09-26T22:38:18.060Z,83.60
2017-09-26T22:40:46.404Z,83.30
2017-09-26T22:43:13.973Z,83.30
2017-09-26T22:45:41.553Z,83.00
2017-09-26T22:48:09.895Z,83.50
2017-09-26T22:50:37.462Z,83.50
2017-09-26T22:53:05.028Z,83.50
2017-09-26T22:55:32.613Z,83.20
2017-09-26T22:58:00.171Z,83.10
2017-09-26T23:00:27.734Z,83.50
2017-09-26T23:02:56.070Z,83.20
2017-09-26T23:05:23.684Z,83.20
2017-09-26T23:07:52.096Z,83.60
2017-09-26T23:10:19.669Z,83.60
2017-09-26T23:12:47.318Z,83.40
2017-09-26T23:15:14.862Z,83.40
2017-09-26T23:17:42.430Z,84.10
2017-09-26T23:20:09.998Z,84.20
2017-09-26T23:22:37.585Z,84.30
2017-09-26T23:25:05.134Z,84.20
2017-09-26T23:27:32.692Z,84.10
2017-09-26T23:30:00.261Z,84.30
2017-09-26T23:32:27.816Z,84.10
2017-09-26T23:34:55.386Z,84.00
2017-09-26T23:37:23.018Z,84.10
2017-09-26T23:39:51.349Z,83.90
2017-09-26T23:42:18.897Z,83.90
2017-09-26T23:44:46.492Z,84.10
2017-09-26T23:47:14.061Z,84.30
2017-09-26T23:49:41.618Z,84.20
2017-09-26T23:52:09.202Z,84.30
2017-09-26T23:54:36.798Z,83.70
2017-09-26T23:57:04.363Z,84.20
2017-09-26T23:59:31.926Z,82.80
